Meteo Giornale » Osservazioni meteo Germania » Wiesbaden

ore: 20:56 - Osservazioni Meteo Wiesbaden
Lat. 50° 3' N Lon. 8° 20' E Alt. 140 metri s.l.m.

nuvoloso Europe/Berlin

15 °C

Nuvoloso

Temp. 24 Ore

10 °C

21 °C

Nord

5.5 Km/h

Dew point 13 °C

Umidità 87 %

Visibilità  10 Km

Il sole sorge alle ore 07:04

Il sole tramonta alle ore 19:37

Data e Ora Cielo e Fenomeni T °C DP °C Um. % Pres. hPa Vis. km Vento km/h
Oggi h: 20:56 nuvoloso Nuvoloso 15 13 87 1015 10 N 5.5
Oggi h: 19:56 nuvoloso Nuvoloso 18 12 67 1015 10 N 0
Oggi h: 18:56 molto_nuvoloso Molto Nuvoloso 21 10 49 1015 10 N 0
Oggi h: 17:56 nuvoloso Nuvoloso 19 11 59 1015 10 N 0
Oggi h: 16:56 coperto Coperto 19 12 63 1015 10 O/NO 7.4
Oggi h: 15:56 coperto Coperto 20 11 56 1016 10 N 5.5
Oggi h: 14:56 coperto Coperto 20 11 56 1016 10 N 0
Oggi h: 13:56 coperto Coperto 20 12 59 1016 10 O/NO 11.1
Oggi h: 12:56 coperto Coperto 19 12 63 1016 10 N 5.5
Oggi h: 11:56 coperto Coperto 18 12 67 1017 10 N 0
Oggi h: 09:56 coperto Coperto 15 12 82 1017 10 O/SO 7.4
Oggi h: 09:26 molto_nuvoloso Molto Nuvoloso 14 12 87 1017 10 N 0
Oggi h: 09:11 molto_nuvoloso Molto Nuvoloso 14 12 87 1017 10 N 5.5
Oggi h: 08:56 coperto Coperto 13 12 93 1017 10 NO 7.4
Oggi h: 08:26 coperto Coperto 13 12 93 1017 10 N 5.5
Oggi h: 07:56 coperto Coperto 12 11 93 1017 10 N 0
Oggi h: 06:56 sereno Sereno 10 10 100 1017 10 N 0
Oggi h: 05:56 sereno Sereno 11 9 87 1017 10 N 5.5
Oggi h: 04:56 sereno Sereno 11 10 93 1017 10 N 5.5
Oggi h: 03:56 sereno Sereno 11 10 93 1017 10 NO 7.4
Oggi h: 02:56 sereno Sereno 11 10 93 1018 10 N 0
Oggi h: 01:56 sereno Sereno 13 11 87 1018 10 N 7.4
Oggi h: 00:56 coperto Coperto 13 11 87 1018 10 N 0
Ieri h: 23:56 coperto Coperto 14 11 82 1018 10 N/NO 9.3
Ieri h: 22:56 nuvoloso Nuvoloso 14 11 82 1018 10 N/NO 11.1
Ieri h: 21:56 coperto Coperto 16 12 77 1018 10 N/NO 9.3